Terminal Aerodrome Forecast
Issued by NWS Amarillo, TX

Home | Current Version | Previous Version | Text Only | Print | Product List | Glossary On
Versions: 1 2 3 4 5 6 7 8 9 10 11 12 13 14 15 16 17 18 19 20 21 22
299
FTUS44 KAMA 300520
TAFGUY
TAF
KGUY 300520Z 3006/0106 33012KT 5SM BR BKN012 OVC030
     FM301100 32010KT P6SM SCT025 BKN250
     FM302000 34013KT P6SM BKN040
     FM010000 34015G20KT P6SM OVC080=

USA.gov is the U.S. government's official web portal to all federal, state and local government web resources and services.